Time;durP1;ratioP1;P1;durP2;ratioP2;P2;SDS_P1;SDS_P2;PMS_P1;PMS_P2;Temp;Humidity;BMP_temperature;BMP_pressure;BME280_temperature;BME280_humidity;BME280_pressure;Samples;Min_cycle;Max_cycle;Signal;HPM_P1;HPM_P2
2023/04/19 00:00:45;;;;;;;12.98;9.90;;;282.30;2278.40;;;;;;5033850;28;20033;-81
2023/04/19 00:03:11;;;;;;;14.20;9.65;;;282.30;2278.40;;;;;;5033858;28;20381;-82
2023/04/19 00:05:37;;;;;;;12.57;9.60;;;282.40;2278.40;;;;;;5033495;28;20025;-83
2023/04/19 00:08:04;;;;;;;13.88;9.70;;;282.40;2278.40;;;;;;5034708;28;20029;-79
2023/04/19 00:10:30;;;;;;;15.75;10.30;;;282.40;2278.40;;;;;;5033822;28;20052;-79
2023/04/19 00:12:56;;;;;;;13.55;9.90;;;282.40;2278.40;;;;;;5032889;28;20112;-83
2023/04/19 00:15:22;;;;;;;19.13;12.70;;;282.40;2278.40;;;;;;5033544;28;20029;-80
2023/04/19 00:17:48;;;;;;;34.70;23.95;;;282.30;2278.40;;;;;;5033405;28;20033;-82
2023/04/19 00:20:14;;;;;;;24.70;17.23;;;282.10;2278.40;;;;;;5033121;28;20376;-79
2023/04/19 00:22:40;;;;;;;20.80;15.55;;;282.00;2278.40;;;;;;5033415;28;20034;-80
2023/04/19 00:25:06;;;;;;;22.55;15.57;;;282.00;2278.40;;;;;;5033303;28;20030;-81
2023/04/19 00:27:32;;;;;;;22.48;16.70;;;282.00;2278.40;;;;;;5024339;28;20041;-83
2023/04/19 00:29:57;;;;;;;22.83;15.18;;;282.00;2278.40;;;;;;5013902;28;20033;-81
2023/04/19 00:32:23;;;;;;;18.20;14.10;;;282.00;2278.40;;;;;;5013174;28;20101;-80
2023/04/19 00:34:49;;;;;;;17.92;12.85;;;282.20;2278.40;;;;;;5014476;28;20481;-79
2023/04/19 00:37:15;;;;;;;22.13;15.40;;;282.10;2278.40;;;;;;5015336;28;20038;-81
2023/04/19 00:39:41;;;;;;;30.23;21.30;;;282.00;2278.40;;;;;;5016505;28;20479;-81
2023/04/19 00:42:07;;;;;;;26.95;18.00;;;281.90;2278.40;;;;;;5016501;28;20025;-80
2023/04/19 00:44:33;;;;;;;32.03;22.25;;;281.90;2278.40;;;;;;5016577;28;20029;-81
2023/04/19 00:46:59;;;;;;;24.23;16.35;;;282.00;2278.40;;;;;;5016092;28;20033;-80
2023/04/19 00:49:26;;;;;;;21.55;16.38;;;282.00;2278.40;;;;;;5034182;28;20028;-80
2023/04/19 00:51:52;;;;;;;23.70;17.70;;;282.20;2278.40;;;;;;5016415;28;20025;-80
2023/04/19 00:54:18;;;;;;;22.27;15.73;;;282.30;2278.40;;;;;;5016089;28;20120;-82
2023/04/19 00:56:44;;;;;;;24.15;18.67;;;282.40;2278.40;;;;;;5016096;28;20479;-83
2023/04/19 00:59:11;;;;;;;23.92;18.65;;;282.30;2278.40;;;;;;5016320;28;20032;-83
2023/04/19 01:01:38;;;;;;;24.88;18.15;;;282.30;2278.40;;;;;;5033667;28;20030;-83
2023/04/19 01:04:07;;;;;;;25.98;18.10;;;282.30;2278.40;;;;;;5015952;28;20033;-81
2023/04/19 01:06:39;;;;;;;23.73;15.82;;;282.20;2278.40;;;;;;5016286;28;20358;-82
2023/04/19 01:09:05;;;;;;;20.02;15.35;;;282.10;2278.40;;;;;;5032262;28;20030;-80
2023/04/19 01:11:30;;;;;;;24.17;14.80;;;282.10;2278.40;;;;;;5016168;28;20030;-80
2023/04/19 01:13:57;;;;;;;21.08;15.13;;;282.00;2278.40;;;;;;5034017;28;20037;-81
2023/04/19 01:16:25;;;;;;;23.27;17.25;;;282.00;2278.40;;;;;;5015690;28;20028;-79
2023/04/19 01:18:51;;;;;;;24.38;18.10;;;282.00;2278.40;;;;;;5016030;28;20064;-80
2023/04/19 01:21:17;;;;;;;22.60;16.95;;;282.20;2278.40;;;;;;5015985;28;20026;-85
2023/04/19 01:23:43;;;;;;;30.23;19.40;;;282.00;2278.40;;;;;;5033160;28;20030;-79
2023/04/19 01:26:09;;;;;;;21.25;16.13;;;282.00;2278.40;;;;;;5016110;28;20032;-82
2023/04/19 01:28:35;;;;;;;23.10;15.23;;;281.80;2278.40;;;;;;5033191;28;20389;-79
2023/04/19 01:31:00;;;;;;;21.95;16.65;;;281.80;2278.40;;;;;;5015879;28;20090;-79
2023/04/19 01:33:26;;;;;;;22.55;15.15;;;281.80;2278.40;;;;;;5016061;28;20030;-80
2023/04/19 01:35:52;;;;;;;21.55;15.75;;;281.80;2278.40;;;;;;5015737;28;20536;-83
2023/04/19 01:38:18;;;;;;;20.27;14.90;;;281.90;2278.40;;;;;;5015325;28;20089;-80
2023/04/19 01:40:44;;;;;;;19.92;14.65;;;282.00;2278.40;;;;;;5015806;28;20466;-82
2023/04/19 01:43:15;;;;;;;17.90;14.57;;;282.00;2278.40;;;;;;5033309;28;20453;-82
2023/04/19 01:45:41;;;;;;;23.05;13.75;;;281.90;2278.40;;;;;;5033237;28;20100;-80
2023/04/19 01:48:07;;;;;;;18.95;14.00;;;281.90;2278.40;;;;;;5015840;28;20029;-80
2023/04/19 01:50:32;;;;;;;19.52;14.00;;;281.80;2278.40;;;;;;5015511;28;20512;-81
2023/04/19 01:52:58;;;;;;;21.50;12.93;;;281.90;2278.40;;;;;;5033139;28;20025;-82
2023/04/19 01:55:24;;;;;;;16.30;13.30;;;281.80;2278.40;;;;;;5015769;28;20469;-81
2023/04/19 01:57:52;;;;;;;13.77;11.30;;;281.80;2278.40;;;;;;5033016;28;20057;-82
2023/04/19 02:00:18;;;;;;;19.88;14.10;;;281.90;2278.40;;;;;;5015761;28;20030;-80
2023/04/19 02:02:44;;;;;;;18.75;12.43;;;282.00;2278.40;;;;;;5015741;28;20029;-81
2023/04/19 02:05:10;;;;;;;19.10;12.90;;;281.90;2278.40;;;;;;5033152;28;20029;-81
2023/04/19 02:07:36;;;;;;;15.63;12.25;;;281.80;2278.40;;;;;;5033311;28;20033;-80
2023/04/19 02:10:02;;;;;;;14.88;12.13;;;281.80;2278.40;;;;;;5015742;28;20079;-82
2023/04/19 02:12:32;;;;;;;15.55;11.82;;;281.80;2278.40;;;;;;5015252;28;20026;-81
2023/04/19 02:14:58;;;;;;;15.93;12.05;;;281.80;2278.40;;;;;;5031969;28;20075;-79
2023/04/19 02:17:25;;;;;;;15.98;11.40;;;281.90;2278.40;;;;;;5015432;28;20036;-81
2023/04/19 02:19:51;;;;;;;17.23;11.77;;;282.00;2278.40;;;;;;5033574;28;20033;-81
2023/04/19 02:22:17;;;;;;;19.13;12.35;;;281.80;2278.40;;;;;;5019163;28;20033;-80
2023/04/19 02:24:44;;;;;;;18.33;12.75;;;281.80;2278.40;;;;;;5035291;28;20445;-81
2023/04/19 02:27:10;;;;;;;22.58;14.45;;;281.80;2278.40;;;;;;5019052;28;20393;-80
2023/04/19 02:29:37;;;;;;;19.30;14.13;;;281.80;2278.40;;;;;;5019140;28;20355;-81
2023/04/19 02:32:04;;;;;;;18.85;13.88;;;282.50;2278.40;;;;;;5036173;28;20025;-80
2023/04/19 02:34:34;;;;;;;28.63;16.38;;;281.90;2278.40;;;;;;5018726;28;20026;-82
2023/04/19 02:37:00;;;;;;;25.98;16.45;;;281.90;2278.40;;;;;;5018653;28;20060;-83
2023/04/19 02:39:26;;;;;;;26.45;15.57;;;281.90;2278.40;;;;;;5018455;28;20037;-80
2023/04/19 02:41:52;;;;;;;25.48;16.50;;;281.90;2278.40;;;;;;5018818;28;20018;-81
2023/04/19 02:44:18;;;;;;;27.90;17.65;;;281.90;2278.40;;;;;;5018777;28;20032;-80
2023/04/19 02:46:50;;;;;;;22.60;15.02;;;281.90;2278.40;;;;;;5018311;28;20033;-80
2023/04/19 02:49:17;;;;;;;21.27;14.93;;;282.00;2278.40;;;;;;5020595;28;20029;-81
2023/04/19 02:51:43;;;;;;;19.67;14.93;;;281.90;2278.40;;;;;;5037463;28;20029;-80
2023/04/19 02:54:10;;;;;;;20.95;14.68;;;282.20;2278.40;;;;;;5037055;28;20024;-81
2023/04/19 02:56:36;;;;;;;19.10;14.27;;;282.10;2278.40;;;;;;5038067;28;20024;-80
2023/04/19 02:59:03;;;;;;;22.55;15.88;;;282.20;2278.40;;;;;;5054004;28;20037;-81
2023/04/19 03:01:29;;;;;;;21.33;14.65;;;282.20;2278.40;;;;;;5055431;28;20020;-78
2023/04/19 03:03:55;;;;;;;24.17;15.32;;;282.10;2278.40;;;;;;5037432;28;20127;-78
2023/04/19 03:06:21;;;;;;;21.35;15.05;;;282.20;2278.40;;;;;;5038183;28;20469;-83
2023/04/19 03:08:47;;;;;;;22.77;17.02;;;282.20;2278.40;;;;;;5055970;28;20108;-78
2023/04/19 03:11:17;;;;;;;53.35;32.30;;;282.20;2278.40;;;;;;5056137;28;20163;-77
2023/04/19 03:13:43;;;;;;;45.17;28.02;;;282.20;2278.40;;;;;;5037692;28;20029;-79
2023/04/19 03:16:09;;;;;;;34.15;24.20;;;282.20;2278.40;;;;;;5037816;28;20028;-79
2023/04/19 03:18:35;;;;;;;36.17;24.10;;;282.10;2278.40;;;;;;5037841;28;20622;-79
2023/04/19 03:21:02;;;;;;;34.35;25.92;;;282.20;2278.40;;;;;;5037431;28;20059;-78
2023/04/19 03:23:28;;;;;;;25.00;17.98;;;282.20;2278.40;;;;;;5055997;28;20489;-78
2023/04/19 03:25:54;;;;;;;22.73;16.73;;;282.30;2278.40;;;;;;5055318;28;20051;-78
2023/04/19 03:28:20;;;;;;;17.58;13.75;;;282.30;2278.40;;;;;;5053801;28;20029;-77
2023/04/19 03:30:45;;;;;;;18.08;14.13;;;282.20;2278.40;;;;;;5037435;28;20025;-81
2023/04/19 03:33:11;;;;;;;16.92;13.45;;;282.20;2278.40;;;;;;5036546;28;20056;-82
2023/04/19 03:35:37;;;;;;;20.02;15.27;;;282.20;2278.40;;;;;;5037347;28;20116;-79
2023/04/19 03:38:03;;;;;;;22.73;17.02;;;282.30;2278.40;;;;;;5054760;28;20061;-79
2023/04/19 03:40:32;;;;;;;28.13;19.70;;;282.30;2278.40;;;;;;5055180;28;20029;-80
2023/04/19 03:42:57;;;;;;;25.35;17.75;;;282.30;2278.40;;;;;;5055034;28;20108;-78
2023/04/19 03:45:23;;;;;;;23.27;16.75;;;282.30;2278.40;;;;;;5037370;28;20053;-80
2023/04/19 03:47:49;;;;;;;22.23;16.48;;;282.40;2278.40;;;;;;5037246;28;20074;-80
2023/04/19 03:50:15;;;;;;;22.38;15.45;;;282.40;2278.40;;;;;;5037000;28;20054;-78
2023/04/19 03:52:41;;;;;;;22.67;15.85;;;282.30;2278.40;;;;;;5037184;28;20068;-78
2023/04/19 03:55:07;;;;;;;20.08;15.32;;;282.20;2278.40;;;;;;5055259;28;20032;-81
2023/04/19 03:57:33;;;;;;;26.15;17.15;;;282.20;2278.40;;;;;;5036691;28;20384;-79
2023/04/19 04:00:00;;;;;;;23.13;16.10;;;282.20;2278.40;;;;;;5037158;28;20028;-80
2023/04/19 04:02:26;;;;;;;22.45;15.82;;;282.30;2278.40;;;;;;5036895;28;20033;-76
2023/04/19 04:04:54;;;;;;;22.55;15.38;;;282.40;2278.40;;;;;;5054943;28;20028;-83
2023/04/19 04:07:22;;;;;;;21.95;16.55;;;282.40;2278.40;;;;;;5036996;28;20535;-78
2023/04/19 04:09:48;;;;;;;27.50;17.45;;;282.40;2278.40;;;;;;5036676;28;20488;-79
2023/04/19 04:12:14;;;;;;;28.00;18.08;;;282.40;2278.40;;;;;;5054525;28;20052;-83
2023/04/19 04:14:40;;;;;;;26.60;19.15;;;282.20;2278.40;;;;;;5037013;28;20469;-81
2023/04/19 04:17:05;;;;;;;24.20;19.70;;;282.00;2278.40;;;;;;5053996;28;20029;-76
2023/04/19 04:19:31;;;;;;;27.90;20.58;;;282.10;2278.40;;;;;;5036801;28;20033;-80
2023/04/19 04:21:57;;;;;;;28.58;20.30;;;282.10;2278.40;;;;;;5036579;28;20060;-80
2023/04/19 04:24:23;;;;;;;26.30;20.23;;;282.20;2278.40;;;;;;5036318;28;20051;-77
2023/04/19 04:26:50;;;;;;;32.60;21.63;;;282.10;2278.40;;;;;;5036588;28;20108;-76
2023/04/19 04:29:16;;;;;;;34.25;24.10;;;282.00;2278.40;;;;;;5036541;28;20124;-77
2023/04/19 04:31:42;;;;;;;35.28;23.65;;;281.90;2278.40;;;;;;5054020;28;20100;-78
2023/04/19 04:34:08;;;;;;;36.40;24.52;;;281.80;2278.40;;;;;;5036426;28;20473;-80
2023/04/19 04:36:36;;;;;;;36.45;24.08;;;281.80;2278.40;;;;;;5036412;28;20107;-82
2023/04/19 04:39:03;;;;;;;31.08;21.60;;;282.00;2278.40;;;;;;5035648;28;20083;-78
2023/04/19 04:41:30;;;;;;;29.23;20.02;;;281.80;2278.40;;;;;;5036281;28;20029;-76
2023/04/19 04:44:00;;;;;;;37.50;23.00;;;281.70;2278.40;;;;;;5035887;28;20032;-79
2023/04/19 04:46:26;;;;;;;43.70;30.13;;;281.70;2278.40;;;;;;5053759;28;20032;-81
2023/04/19 04:48:52;;;;;;;71.28;60.17;;;281.80;2278.40;;;;;;5036293;28;20033;-81
2023/04/19 04:51:18;;;;;;;64.88;51.40;;;281.80;2278.40;;;;;;5034273;28;20025;-81
2023/04/19 04:53:44;;;;;;;32.97;26.15;;;282.00;2278.40;;;;;;5035148;28;20031;-77
2023/04/19 04:56:10;;;;;;;26.80;23.38;;;282.20;2278.40;;;;;;5052280;28;20370;-77
2023/04/19 04:58:36;;;;;;;33.08;24.10;;;282.00;2278.40;;;;;;5053521;28;20041;-77
2023/04/19 05:01:02;;;;;;;31.85;24.13;;;282.00;2278.40;;;;;;5053954;28;20468;-80
2023/04/19 05:03:28;;;;;;;34.55;23.48;;;282.00;2278.40;;;;;;5054079;28;20099;-79
2023/04/19 05:05:53;;;;;;;31.40;20.48;;;282.20;2278.40;;;;;;5052131;28;20112;-79
2023/04/19 05:08:19;;;;;;;27.88;18.80;;;281.90;2278.40;;;;;;5035869;28;20029;-78
2023/04/19 05:10:45;;;;;;;25.25;18.95;;;281.80;2278.40;;;;;;5052479;28;20136;-79
2023/04/19 05:13:11;;;;;;;30.50;19.63;;;281.80;2278.40;;;;;;5052208;28;20025;-80
2023/04/19 05:15:36;;;;;;;81.97;33.20;;;282.00;2278.40;;;;;;5035885;28;20029;-79
2023/04/19 05:18:02;;;;;;;47.53;27.08;;;282.10;2278.40;;;;;;5035853;28;20511;-78
2023/04/19 05:20:29;;;;;;;27.85;19.63;;;282.20;2278.40;;;;;;5035434;28;20052;-78
2023/04/19 05:22:59;;;;;;;37.78;22.92;;;282.20;2278.40;;;;;;5035744;28;20469;-80
2023/04/19 05:25:25;;;;;;;30.73;20.77;;;282.30;2278.40;;;;;;5035664;28;20033;-79
2023/04/19 05:27:51;;;;;;;48.17;26.88;;;282.20;2278.40;;;;;;5035259;28;20035;-78
2023/04/19 05:30:16;;;;;;;34.55;20.15;;;282.20;2278.40;;;;;;5035546;28;20060;-77
2023/04/19 05:32:42;;;;;;;25.45;18.23;;;282.20;2278.40;;;;;;5053448;28;20100;-80
2023/04/19 05:35:09;;;;;;;25.33;19.27;;;282.30;2278.40;;;;;;5053140;28;20432;-78
2023/04/19 05:37:35;;;;;;;28.75;21.95;;;282.40;2278.40;;;;;;5035088;28;20103;-78
2023/04/19 05:40:04;;;;;;;29.42;19.85;;;282.30;2278.40;;;;;;5053497;28;20354;-76
2023/04/19 05:42:30;;;;;;;26.60;18.92;;;282.30;2278.40;;;;;;5035099;28;20366;-78
2023/04/19 05:44:56;;;;;;;28.50;20.55;;;282.30;2278.40;;;;;;5035481;28;20021;-77
2023/04/19 05:47:22;;;;;;;27.52;19.95;;;282.40;2278.40;;;;;;5053069;28;20029;-79
2023/04/19 05:49:48;;;;;;;21.88;17.30;;;282.40;2278.40;;;;;;5051833;28;20067;-77
2023/04/19 05:52:14;;;;;;;28.55;20.77;;;282.40;2278.40;;;;;;5052082;28;20100;-78
2023/04/19 05:54:39;;;;;;;37.20;25.48;;;282.40;2278.40;;;;;;5036300;28;20433;-79
2023/04/19 05:57:05;;;;;;;48.92;34.10;;;282.30;2278.40;;;;;;5039336;28;20040;-80
2023/04/19 05:59:31;;;;;;;40.03;28.55;;;282.40;2278.40;;;;;;5056019;28;20039;-78
2023/04/19 06:01:58;;;;;;;26.60;20.40;;;282.40;2278.40;;;;;;5056897;28;20037;-79
2023/04/19 06:04:23;;;;;;;26.48;20.02;;;282.30;2278.40;;;;;;5057238;28;20021;-79
2023/04/19 06:06:49;;;;;;;30.13;22.77;;;282.40;2278.40;;;;;;5057166;28;20426;-78
2023/04/19 06:09:17;;;;;;;35.03;26.42;;;282.40;2278.40;;;;;;5038901;28;20033;-79
2023/04/19 06:11:43;;;;;;;44.45;32.60;;;282.50;2278.40;;;;;;5039208;28;20060;-82
2023/04/19 06:14:11;;;;;;;35.75;26.00;;;282.50;2278.40;;;;;;5039080;28;20029;-80
2023/04/19 06:16:36;;;;;;;31.20;23.48;;;282.50;2278.40;;;;;;5038629;28;20472;-81
2023/04/19 06:19:02;;;;;;;27.08;20.08;;;282.50;2278.40;;;;;;5055533;28;20041;-79
2023/04/19 06:21:31;;;;;;;25.52;19.13;;;282.50;2278.40;;;;;;5038913;28;20117;-79
2023/04/19 06:23:57;;;;;;;34.38;24.48;;;282.40;2278.40;;;;;;5038639;28;20033;-81
2023/04/19 06:26:23;;;;;;;35.83;26.42;;;282.30;2278.40;;;;;;5038561;28;20438;-79
2023/04/19 06:28:49;;;;;;;55.55;36.78;;;282.20;2278.40;;;;;;5056676;28;20029;-81
2023/04/19 06:31:15;;;;;;;77.78;47.25;;;282.30;2278.40;;;;;;5056321;28;20023;-81
2023/04/19 06:33:40;;;;;;;40.63;29.25;;;282.40;2278.40;;;;;;5055432;28;20025;-78
2023/04/19 06:36:06;;;;;;;45.20;31.98;;;282.50;2278.40;;;;;;5055303;28;20392;-79
2023/04/19 06:38:32;;;;;;;38.05;26.30;;;282.30;2278.40;;;;;;5055935;28;20057;-80
2023/04/19 06:40:58;;;;;;;29.70;22.30;;;282.30;2278.40;;;;;;5056133;28;20025;-81
2023/04/19 06:43:24;;;;;;;36.92;26.58;;;282.40;2278.40;;;;;;5038461;28;20083;-80
2023/04/19 06:46:00;;;;;;;34.30;22.83;;;282.30;2278.40;;;;;;5056260;28;20021;-82
2023/04/19 06:48:26;;;;;;;36.85;24.65;;;282.30;2278.40;;;;;;5038515;28;20380;-81
2023/04/19 06:50:53;;;;;;;40.45;27.25;;;282.20;2278.40;;;;;;5054617;28;20461;-82
2023/04/19 06:53:19;;;;;;;29.33;21.23;;;282.30;2278.40;;;;;;5056317;28;20029;-80
2023/04/19 06:55:45;;;;;;;24.52;18.70;;;282.50;2278.40;;;;;;5038226;28;20032;-82
2023/04/19 06:58:11;;;;;;;25.60;19.08;;;307.20;2304.00;;;;;;5037967;28;20095;-83
2023/04/19 07:00:37;;;;;;;27.60;19.10;;;307.20;2304.00;;;;;;5049005;28;20029;-82
2023/04/19 07:03:03;;;;;;;37.10;25.58;;;282.40;2278.40;;;;;;5034828;28;20442;-82
2023/04/19 07:05:30;;;;;;;42.95;28.55;;;282.30;2278.40;;;;;;5034288;28;20064;-78
2023/04/19 07:07:56;;;;;;;29.60;20.67;;;307.30;2304.00;;;;;;5034762;28;20358;-80
2023/04/19 07:10:22;;;;;;;29.52;20.33;;;282.50;2278.40;;;;;;5036171;28;20025;-81
2023/04/19 07:12:47;;;;;;;25.05;19.33;;;307.30;2304.00;;;;;;5034662;28;20032;-82
2023/04/19 07:15:13;;;;;;;28.92;21.75;;;307.40;2304.00;;;;;;5034892;28;20458;-81
2023/04/19 07:17:40;;;;;;;19.33;15.88;;;307.20;2304.00;;;;;;5034781;28;20033;-84
2023/04/19 07:20:06;;;;;;;21.90;18.05;;;307.50;2304.00;;;;;;5035677;28;20478;-83
2023/04/19 07:22:32;;;;;;;23.38;18.33;;;307.20;2304.00;;;;;;5034614;28;20079;-81
2023/04/19 07:24:58;;;;;;;27.05;19.17;;;307.50;2304.00;;;;;;5034827;28;20107;-84
2023/04/19 07:27:24;;;;;;;29.05;21.33;;;307.60;2304.00;;;;;;5034287;28;20096;-83
2023/04/19 07:29:51;;;;;;;60.10;39.60;;;307.70;2304.00;;;;;;5034561;28;20029;-83
2023/04/19 07:32:17;;;;;;;47.17;33.35;;;307.60;2304.00;;;;;;5034806;28;20516;-84
2023/04/19 07:34:44;;;;;;;24.52;19.50;;;307.70;2304.00;;;;;;5034382;28;20033;-85
2023/04/19 07:37:10;;;;;;;30.08;22.48;;;307.80;2304.00;;;;;;5035660;28;20026;-85
2023/04/19 07:39:35;;;;;;;26.17;21.42;;;307.90;2304.00;;;;;;5035385;28;20076;-85
2023/04/19 07:42:01;;;;;;;22.77;19.50;;;307.90;2304.00;;;;;;5034644;28;20025;-85
2023/04/19 07:44:27;;;;;;;28.48;22.17;;;307.80;2304.00;;;;;;5034446;28;20030;-85
2023/04/19 07:46:53;;;;;;;31.15;23.70;;;307.90;2304.00;;;;;;5034129;28;20033;-86
2023/04/19 07:49:18;;;;;;;29.23;22.88;;;308.10;2304.00;;;;;;5034563;28;20026;-83
2023/04/19 07:51:44;;;;;;;26.42;21.50;;;308.10;2304.00;;;;;;5034802;28;20022;-83
2023/04/19 07:54:10;;;;;;;27.60;22.02;;;332.90;2329.60;;;;;;5034004;28;20071;-84
2023/04/19 07:56:36;;;;;;;44.22;27.08;;;333.10;2329.60;;;;;;5034951;28;20029;-86
2023/04/19 07:59:02;;;;;;;42.22;32.20;;;332.90;2329.60;;;;;;5034715;28;20465;-86
2023/04/19 08:01:29;;;;;;;31.42;25.17;;;332.90;2329.60;;;;;;5034155;28;20055;-84
2023/04/19 08:03:54;;;;;;;27.20;23.40;;;332.80;2329.60;;;;;;5034350;28;20030;-85
2023/04/19 08:06:20;;;;;;;43.42;34.33;;;332.90;2329.60;;;;;;5035034;28;20491;-85
2023/04/19 08:08:47;;;;;;;37.60;28.75;;;333.10;2329.60;;;;;;5034095;28;20036;-85
2023/04/19 08:11:13;;;;;;;34.10;25.70;;;333.40;2329.60;;;;;;5034087;28;20025;-85
2023/04/19 08:13:39;;;;;;;38.03;31.02;;;333.60;2329.60;;;;;;5034334;28;20028;-85
2023/04/19 08:16:05;;;;;;;65.32;43.17;;;358.50;2329.60;;;;;;5033968;28;20036;-85
2023/04/19 08:18:34;;;;;;;45.80;31.20;;;358.50;2329.60;;;;;;5033294;28;20029;-86
2023/04/19 08:21:00;;;;;;;72.38;42.10;;;358.60;2329.60;;;;;;5047551;28;20083;-89
2023/04/19 08:23:26;;;;;;;58.92;35.10;;;358.60;2329.60;;;;;;5032947;28;20025;-89
2023/04/19 08:25:52;;;;;;;68.38;40.72;;;358.60;2329.60;;;;;;5035731;28;20201;-85
2023/04/19 08:28:18;;;;;;;77.53;45.00;;;358.50;2329.60;;;;;;5017929;28;20535;-87
2023/04/19 08:30:44;;;;;;;45.92;30.42;;;358.50;2329.60;;;;;;5018506;28;20033;-81
2023/04/19 08:33:09;;;;;;;32.88;24.60;;;358.60;2329.60;;;;;;5030378;28;20043;-88
2023/04/19 08:35:39;;;;;;;27.83;23.05;;;358.80;2329.60;;;;;;5047783;28;20028;-88
2023/04/19 08:38:05;;;;;;;29.38;22.15;;;359.00;2329.60;;;;;;5043995;28;20057;-84
2023/04/19 08:40:31;;;;;;;30.08;23.10;;;359.00;2329.60;;;;;;5037254;28;20043;-84
2023/04/19 08:42:57;;;;;;;32.05;22.02;;;359.10;2329.60;;;;;;5036984;28;20396;-87
2023/04/19 08:45:26;;;;;;;28.48;21.10;;;359.30;2329.60;;;;;;5037241;28;20021;-86
2023/04/19 08:47:54;;;;;;;34.63;22.80;;;384.10;2329.60;;;;;;5036718;28;20139;-87
2023/04/19 08:50:20;;;;;;;26.73;18.55;;;384.40;2329.60;;;;;;5036546;28;20028;-86
2023/04/19 08:52:47;;;;;;;26.73;19.23;;;384.30;2329.60;;;;;;5036472;28;20112;-85
2023/04/19 08:55:14;;;;;;;28.08;19.42;;;384.50;2329.60;;;;;;5020666;28;20029;-85
2023/04/19 08:57:40;;;;;;;22.75;18.75;;;384.70;2329.60;;;;;;5029133;28;20465;-86
2023/04/19 09:00:08;;;;;;;30.95;23.13;;;409.60;2355.20;;;;;;5028324;28;20033;-88
2023/04/19 09:02:47;;;;;;;23.25;19.73;;;409.80;2355.20;;;;;;5022307;28;20035;-88
2023/04/19 09:05:14;;;;;;;23.13;19.15;;;410.20;2355.20;;;;;;5017228;28;20071;-87
2023/04/19 09:07:41;;;;;;;21.95;16.63;;;410.00;2355.20;;;;;;5047317;28;20040;-86
2023/04/19 09:10:08;;;;;;;19.58;17.48;;;409.90;2355.20;;;;;;5036958;28;20080;-88
2023/04/19 09:12:35;;;;;;;21.63;17.13;;;409.80;2355.20;;;;;;5036591;28;20515;-87
2023/04/19 09:15:03;;;;;;;24.50;20.73;;;409.80;2355.20;;;;;;5036687;28;20461;-86
2023/04/19 09:17:32;;;;;;;24.88;20.60;;;409.60;2355.20;;;;;;5036534;28;20099;-88
2023/04/19 09:19:58;;;;;;;46.35;31.08;;;384.80;2329.60;;;;;;5036702;28;20029;-86
2023/04/19 09:22:24;;;;;;;24.35;20.30;;;384.70;2329.60;;;;;;5036548;28;20025;-87
2023/04/19 09:24:51;;;;;;;22.73;18.20;;;384.50;2329.60;;;;;;5019932;28;20037;-88
2023/04/19 09:27:37;;;;;;;28.05;21.20;;;384.50;2329.60;;;;;;5032065;28;20033;-86
2023/04/19 09:30:05;;;;;;;24.67;19.58;;;384.40;2329.60;;;;;;5027396;28;20033;-87
2023/04/19 09:32:46;;;;;;;22.42;19.55;;;384.70;2329.60;;;;;;5054286;28;20047;-87
2023/04/19 09:35:11;;;;;;;31.85;24.42;;;384.40;2329.60;;;;;;5033571;28;20452;-88
2023/04/19 09:37:40;;;;;;;31.25;25.10;;;384.20;2329.60;;;;;;5016425;28;20188;-87
2023/04/19 09:40:22;;;;;;;32.78;27.13;;;384.10;2329.60;;;;;;5033978;28;20036;-87
2023/04/19 09:42:49;;;;;;;29.73;24.30;;;384.00;2329.60;;;;;;5036641;28;20379;-86
2023/04/19 09:45:15;;;;;;;27.80;23.42;;;384.00;2329.60;;;;;;5036618;28;20025;-87
2023/04/19 09:47:40;;;;;;;31.30;25.65;;;384.00;2329.60;;;;;;5028338;28;20088;-86
2023/04/19 09:50:08;;;;;;;36.80;30.10;;;384.10;2329.60;;;;;;5016398;28;20380;-82
2023/04/19 09:52:35;;;;;;;32.72;27.98;;;384.20;2329.60;;;;;;5031341;28;20538;-86
2023/04/19 09:55:03;;;;;;;29.30;25.02;;;384.20;2329.60;;;;;;5017257;28;20021;-85
2023/04/19 09:57:30;;;;;;;27.10;23.67;;;384.20;2329.60;;;;;;5039848;28;20040;-85
2023/04/19 09:59:58;;;;;;;26.80;23.13;;;384.30;2329.60;;;;;;5026150;28;20033;-84
2023/04/19 10:02:25;;;;;;;26.58;22.35;;;384.30;2329.60;;;;;;5029820;28;20025;-84
2023/04/19 10:04:53;;;;;;;54.45;42.88;;;384.20;2329.60;;;;;;5019595;28;20022;-86
2023/04/19 10:07:19;;;;;;;34.67;27.88;;;384.30;2329.60;;;;;;5036388;28;20044;-85
2023/04/19 10:09:48;;;;;;;35.17;27.35;;;384.10;2329.60;;;;;;5036265;28;20096;-85
2023/04/19 10:12:15;;;;;;;27.27;23.58;;;384.10;2329.60;;;;;;5023834;28;20044;-85
2023/04/19 10:14:42;;;;;;;29.38;22.77;;;384.10;2329.60;;;;;;5032725;28;20468;-84
2023/04/19 10:17:08;;;;;;;29.95;24.80;;;384.10;2329.60;;;;;;5036086;28;20033;-86
2023/04/19 10:19:36;;;;;;;31.50;23.08;;;384.20;2329.60;;;;;;5029403;28;20144;-84
2023/04/19 10:22:05;;;;;;;22.92;20.42;;;384.30;2329.60;;;;;;5026776;28;20056;-85
2023/04/19 10:24:32;;;;;;;23.85;18.83;;;384.80;2329.60;;;;;;5039020;28;20120;-84
2023/04/19 10:27:11;;;;;;;32.22;22.65;;;384.90;2329.60;;;;;;5034228;28;20029;-86
2023/04/19 10:30:12;;;;;;;22.00;18.95;;;384.90;2329.60;;;;;;5028153;28;20048;-83
2023/04/19 10:32:43;;;;;;;22.15;18.65;;;409.60;2355.20;;;;;;5015241;28;20030;-83
2023/04/19 10:35:33;;;;;;;23.63;20.02;;;409.70;2355.20;;;;;;5034107;28;20029;-86
2023/04/19 10:38:04;;;;;;;22.50;17.85;;;409.90;2355.20;;;;;;5015798;28;20554;-84
2023/04/19 10:43:18;;;;;;;30.30;20.15;;;384.60;2329.60;;;;;;5037718;28;20048;-85
2023/04/19 10:45:45;;;;;;;25.38;17.67;;;384.40;2329.60;;;;;;5028684;28;20092;-85
2023/04/19 10:48:29;;;;;;;26.17;18.70;;;384.50;2329.60;;;;;;5041952;28;20139;-86
2023/04/19 10:51:03;;;;;;;23.02;19.10;;;384.80;2329.60;;;;;;5021162;28;20025;-85
2023/04/19 10:53:45;;;;;;;21.50;18.85;;;409.70;2355.20;;;;;;5019282;28;20044;-84
2023/04/19 10:56:12;;;;;;;23.77;17.83;;;409.70;2355.20;;;;;;5031033;28;20025;-85
2023/04/19 10:59:13;;;;;;;24.90;22.20;;;384.80;2329.60;;;;;;5039241;28;20059;-85
2023/04/19 11:01:45;;;;;;;27.85;24.88;;;384.90;2329.60;;;;;;5031370;28;20029;-85
2023/04/19 11:04:11;;;;;;;24.73;16.00;;;384.80;2329.60;;;;;;5029988;28;20028;-82
2023/04/19 11:06:51;;;;;;;18.92;15.90;;;384.70;2329.60;;;;;;5022413;28;20041;-82
2023/04/19 11:09:35;;;;;;;21.33;14.98;;;384.60;2329.60;;;;;;5023262;28;20021;-84
2023/04/19 11:12:12;;;;;;;19.58;14.48;;;384.50;2329.60;;;;;;5038578;28;20017;-86
2023/04/19 11:14:46;;;;;;;25.60;18.50;;;384.50;2329.60;;;;;;5056064;28;20036;-86
2023/04/19 11:17:19;;;;;;;21.75;19.42;;;384.20;2329.60;;;;;;5022252;28;20033;-84
2023/04/19 11:20:05;;;;;;;22.08;18.65;;;384.40;2329.60;;;;;;5056262;28;20060;-85
2023/04/19 11:22:32;;;;;;;124.78;101.35;;;384.60;2329.60;;;;;;5038325;28;20028;-86
2023/04/19 11:25:17;;;;;;;32.10;25.83;;;384.70;2329.60;;;;;;5036485;28;20085;-87
2023/04/19 11:27:54;;;;;;;18.83;16.38;;;409.60;2355.20;;;;;;5026512;28;20473;-86
2023/04/19 11:30:28;;;;;;;22.33;17.50;;;410.20;2355.20;;;;;;5025302;28;20069;-85
2023/04/19 11:32:55;;;;;;;19.05;15.65;;;435.30;2355.20;;;;;;5035332;28;20033;-88
2023/04/19 11:35:23;;;;;;;18.83;13.60;;;435.80;2355.20;;;;;;5025779;28;20079;-90
2023/04/19 11:37:50;;;;;;;40.28;36.25;;;435.80;2355.20;;;;;;5038753;28;20053;-88
2023/04/19 11:40:17;;;;;;;19.73;17.73;;;435.30;2355.20;;;;;;5026259;28;20021;-90
2023/04/19 11:42:44;;;;;;;20.42;16.15;;;435.20;2355.20;;;;;;5054487;28;20024;-90
2023/04/19 11:45:10;;;;;;;19.30;14.75;;;410.40;2355.20;;;;;;5021650;28;20044;-86
2023/04/19 11:47:49;;;;;;;11.63;8.98;;;410.00;2355.20;;;;;;5037436;28;20025;-86
2023/04/19 11:50:34;;;;;;;12.07;7.22;;;409.80;2355.20;;;;;;5025518;28;20038;-81
2023/04/19 11:53:19;;;;;;;7.90;5.57;;;409.60;2355.20;;;;;;5035007;28;20120;-83
2023/04/19 11:55:46;;;;;;;7.72;5.78;;;384.70;2329.60;;;;;;5036259;28;20021;-85
2023/04/19 11:58:34;;;;;;;14.60;8.02;;;384.60;2329.60;;;;;;5031396;28;20057;-83
2023/04/19 12:01:08;;;;;;;8.07;5.38;;;384.50;2329.60;;;;;;5035579;28;20456;-84
2023/04/19 12:03:39;;;;;;;9.30;6.70;;;384.40;2329.60;;;;;;5028797;28;20052;-86